sensor_id;sensor_type;location;lat;lon;timestamp;temperature;humidity
51466;DHT22;37542;50.164;9.086;2022-10-17T00:02:34;11.60;74.90
51466;DHT22;37542;50.164;9.086;2022-10-17T00:06:15;11.50;74.10
51466;DHT22;37542;50.164;9.086;2022-10-17T00:09:56;11.50;74.30
51466;DHT22;37542;50.164;9.086;2022-10-17T00:13:36;11.40;74.50
51466;DHT22;37542;50.164;9.086;2022-10-17T00:17:17;11.40;74.50
51466;DHT22;37542;50.164;9.086;2022-10-17T00:20:58;11.40;74.40
51466;DHT22;37542;50.164;9.086;2022-10-17T00:24:39;11.30;74.30
51466;DHT22;37542;50.164;9.086;2022-10-17T00:28:20;11.30;74.40
51466;DHT22;37542;50.164;9.086;2022-10-17T00:32:00;11.30;74.90
51466;DHT22;37542;50.164;9.086;2022-10-17T00:35:41;11.30;74.00
51466;DHT22;37542;50.164;9.086;2022-10-17T00:39:22;11.30;73.90
51466;DHT22;37542;50.164;9.086;2022-10-17T00:43:03;11.20;73.80
51466;DHT22;37542;50.164;9.086;2022-10-17T00:46:43;11.20;73.50
51466;DHT22;37542;50.164;9.086;2022-10-17T00:50:27;11.20;73.60
51466;DHT22;37542;50.164;9.086;2022-10-17T00:54:09;11.10;73.60
51466;DHT22;37542;50.164;9.086;2022-10-17T00:57:52;11.10;73.90
51466;DHT22;37542;50.164;9.086;2022-10-17T01:01:34;11.10;74.10
51466;DHT22;37542;50.164;9.086;2022-10-17T01:05:16;11.00;74.20
51466;DHT22;37542;50.164;9.086;2022-10-17T01:08:58;11.00;74.40
51466;DHT22;37542;50.164;9.086;2022-10-17T01:12:41;11.00;74.40
51466;DHT22;37542;50.164;9.086;2022-10-17T01:16:42;11.00;74.30
51466;DHT22;37542;50.164;9.086;2022-10-17T01:25:40;11.00;74.80
51466;DHT22;37542;50.164;9.086;2022-10-17T01:34:17;11.00;74.60
51466;DHT22;37542;50.164;9.086;2022-10-17T01:38:24;10.90;74.50
51466;DHT22;37542;50.164;9.086;2022-10-17T01:43:07;10.90;75.00
51466;DHT22;37542;50.164;9.086;2022-10-17T01:46:58;10.90;75.00
51466;DHT22;37542;50.164;9.086;2022-10-17T01:50:51;10.90;74.60
51466;DHT22;37542;50.164;9.086;2022-10-17T01:54:41;10.80;74.60
51466;DHT22;37542;50.164;9.086;2022-10-17T01:58:30;10.80;74.70
51466;DHT22;37542;50.164;9.086;2022-10-17T02:02:14;10.80;74.50
51466;DHT22;37542;50.164;9.086;2022-10-17T02:05:57;10.70;74.40
51466;DHT22;37542;50.164;9.086;2022-10-17T02:09:38;10.70;74.30
51466;DHT22;37542;50.164;9.086;2022-10-17T02:17:59;10.70;74.60
51466;DHT22;37542;50.164;9.086;2022-10-17T02:22:34;10.60;74.30
51466;DHT22;37542;50.164;9.086;2022-10-17T02:26:33;10.60;74.70
51466;DHT22;37542;50.164;9.086;2022-10-17T02:30:32;10.50;74.30
51466;DHT22;37542;50.164;9.086;2022-10-17T02:34:28;10.50;74.10
51466;DHT22;37542;50.164;9.086;2022-10-17T02:38:13;10.40;74.90
51466;DHT22;37542;50.164;9.086;2022-10-17T02:41:57;10.40;74.00
51466;DHT22;37542;50.164;9.086;2022-10-17T02:45:41;10.40;74.10
51466;DHT22;37542;50.164;9.086;2022-10-17T02:49:25;10.40;73.90
51466;DHT22;37542;50.164;9.086;2022-10-17T02:53:31;10.30;74.00
51466;DHT22;37542;50.164;9.086;2022-10-17T02:57:34;10.30;73.90
51466;DHT22;37542;50.164;9.086;2022-10-17T03:01:19;10.20;74.10
51466;DHT22;37542;50.164;9.086;2022-10-17T03:05:01;10.20;73.90
51466;DHT22;37542;50.164;9.086;2022-10-17T03:08:41;10.20;74.00
51466;DHT22;37542;50.164;9.086;2022-10-17T03:12:22;10.20;74.10
51466;DHT22;37542;50.164;9.086;2022-10-17T03:16:03;10.10;73.80
51466;DHT22;37542;50.164;9.086;2022-10-17T03:19:45;10.10;74.20
51466;DHT22;37542;50.164;9.086;2022-10-17T03:23:26;10.10;74.40
51466;DHT22;37542;50.164;9.086;2022-10-17T03:27:07;10.10;74.60
51466;DHT22;37542;50.164;9.086;2022-10-17T03:30:47;10.00;74.60
51466;DHT22;37542;50.164;9.086;2022-10-17T03:34:28;10.00;75.30
51466;DHT22;37542;50.164;9.086;2022-10-17T03:38:09;10.00;74.60
51466;DHT22;37542;50.164;9.086;2022-10-17T03:41:50;10.00;74.60
51466;DHT22;37542;50.164;9.086;2022-10-17T03:45:31;10.00;74.70
51466;DHT22;37542;50.164;9.086;2022-10-17T03:49:12;9.90;74.60
51466;DHT22;37542;50.164;9.086;2022-10-17T03:52:52;9.90;74.60
51466;DHT22;37542;50.164;9.086;2022-10-17T03:56:33;9.90;74.60
51466;DHT22;37542;50.164;9.086;2022-10-17T04:00:14;9.90;74.50
51466;DHT22;37542;50.164;9.086;2022-10-17T04:03:55;9.90;74.50
51466;DHT22;37542;50.164;9.086;2022-10-17T04:07:37;9.90;74.40
51466;DHT22;37542;50.164;9.086;2022-10-17T04:11:19;9.90;75.10
51466;DHT22;37542;50.164;9.086;2022-10-17T04:15:00;9.80;74.50
51466;DHT22;37542;50.164;9.086;2022-10-17T04:18:42;9.80;74.40
51466;DHT22;37542;50.164;9.086;2022-10-17T04:22:23;9.80;74.50
51466;DHT22;37542;50.164;9.086;2022-10-17T04:26:05;9.80;74.60
51466;DHT22;37542;50.164;9.086;2022-10-17T04:29:46;9.70;74.60
51466;DHT22;37542;50.164;9.086;2022-10-17T04:33:30;9.70;74.70
51466;DHT22;37542;50.164;9.086;2022-10-17T04:37:12;9.70;74.80
51466;DHT22;37542;50.164;9.086;2022-10-17T04:40:53;9.70;74.80
51466;DHT22;37542;50.164;9.086;2022-10-17T04:44:41;9.70;74.80
51466;DHT22;37542;50.164;9.086;2022-10-17T04:48:22;9.60;75.50
51466;DHT22;37542;50.164;9.086;2022-10-17T04:52:03;9.70;75.00
51466;DHT22;37542;50.164;9.086;2022-10-17T04:55:44;9.60;74.90
51466;DHT22;37542;50.164;9.086;2022-10-17T04:59:25;9.60;75.00
51466;DHT22;37542;50.164;9.086;2022-10-17T05:03:05;9.60;75.00
51466;DHT22;37542;50.164;9.086;2022-10-17T05:06:47;9.60;74.90
51466;DHT22;37542;50.164;9.086;2022-10-17T05:10:27;9.60;74.80
51466;DHT22;37542;50.164;9.086;2022-10-17T05:14:08;9.60;74.70
51466;DHT22;37542;50.164;9.086;2022-10-17T05:17:54;9.60;74.80
51466;DHT22;37542;50.164;9.086;2022-10-17T05:21:35;9.60;75.20
51466;DHT22;37542;50.164;9.086;2022-10-17T05:25:16;9.50;74.90
51466;DHT22;37542;50.164;9.086;2022-10-17T05:29:02;9.50;75.00
51466;DHT22;37542;50.164;9.086;2022-10-17T05:32:43;9.50;75.10
51466;DHT22;37542;50.164;9.086;2022-10-17T05:36:24;9.50;75.00
51466;DHT22;37542;50.164;9.086;2022-10-17T05:40:05;9.50;75.00
51466;DHT22;37542;50.164;9.086;2022-10-17T05:43:49;9.50;75.00
51466;DHT22;37542;50.164;9.086;2022-10-17T05:47:30;9.50;75.20
51466;DHT22;37542;50.164;9.086;2022-10-17T05:51:19;9.40;74.80
51466;DHT22;37542;50.164;9.086;2022-10-17T05:55:10;9.40;75.00
51466;DHT22;37542;50.164;9.086;2022-10-17T05:59:13;9.40;75.00
51466;DHT22;37542;50.164;9.086;2022-10-17T06:02:54;9.40;75.20
51466;DHT22;37542;50.164;9.086;2022-10-17T06:06:36;9.40;74.80
51466;DHT22;37542;50.164;9.086;2022-10-17T06:10:18;9.30;74.90
51466;DHT22;37542;50.164;9.086;2022-10-17T06:13:59;9.40;74.90
51466;DHT22;37542;50.164;9.086;2022-10-17T06:17:41;9.40;75.10
51466;DHT22;37542;50.164;9.086;2022-10-17T06:21:24;9.30;74.90
51466;DHT22;37542;50.164;9.086;2022-10-17T06:25:07;9.30;75.10
51466;DHT22;37542;50.164;9.086;2022-10-17T06:28:48;9.30;75.10
51466;DHT22;37542;50.164;9.086;2022-10-17T06:32:29;9.30;75.20
51466;DHT22;37542;50.164;9.086;2022-10-17T06:36:11;9.30;75.40
51466;DHT22;37542;50.164;9.086;2022-10-17T06:39:53;9.30;75.50
51466;DHT22;37542;50.164;9.086;2022-10-17T06:43:35;9.30;75.50
51466;DHT22;37542;50.164;9.086;2022-10-17T06:47:17;9.30;75.50
51466;DHT22;37542;50.164;9.086;2022-10-17T06:51:01;9.30;75.60
51466;DHT22;37542;50.164;9.086;2022-10-17T06:54:43;9.40;76.10
51466;DHT22;37542;50.164;9.086;2022-10-17T06:58:24;9.40;76.00
51466;DHT22;37542;50.164;9.086;2022-10-17T07:02:05;9.40;76.20
51466;DHT22;37542;50.164;9.086;2022-10-17T07:05:51;9.50;76.40
51466;DHT22;37542;50.164;9.086;2022-10-17T07:09:32;9.50;76.90
51466;DHT22;37542;50.164;9.086;2022-10-17T07:13:13;9.50;76.70
51466;DHT22;37542;50.164;9.086;2022-10-17T07:16:54;9.60;77.00
51466;DHT22;37542;50.164;9.086;2022-10-17T07:20:35;9.70;77.40
51466;DHT22;37542;50.164;9.086;2022-10-17T07:24:16;9.70;77.50
51466;DHT22;37542;50.164;9.086;2022-10-17T07:27:57;9.80;77.90
51466;DHT22;37542;50.164;9.086;2022-10-17T07:31:38;9.90;78.10
51466;DHT22;37542;50.164;9.086;2022-10-17T07:35:19;10.00;78.20
51466;DHT22;37542;50.164;9.086;2022-10-17T07:39:00;10.10;78.30
51466;DHT22;37542;50.164;9.086;2022-10-17T07:42:41;10.10;78.40
51466;DHT22;37542;50.164;9.086;2022-10-17T07:46:22;10.20;78.60
51466;DHT22;37542;50.164;9.086;2022-10-17T07:50:04;10.30;78.60
51466;DHT22;37542;50.164;9.086;2022-10-17T07:53:45;10.40;78.80
51466;DHT22;37542;50.164;9.086;2022-10-17T07:57:25;10.50;78.80
51466;DHT22;37542;50.164;9.086;2022-10-17T08:01:08;10.60;78.90
51466;DHT22;37542;50.164;9.086;2022-10-17T08:04:53;10.70;79.10
51466;DHT22;37542;50.164;9.086;2022-10-17T08:08:34;10.80;79.10
51466;DHT22;37542;50.164;9.086;2022-10-17T08:12:15;10.90;79.30
51466;DHT22;37542;50.164;9.086;2022-10-17T08:16:01;11.00;79.50
51466;DHT22;37542;50.164;9.086;2022-10-17T08:19:43;11.20;80.00
51466;DHT22;37542;50.164;9.086;2022-10-17T08:23:24;11.30;79.70
51466;DHT22;37542;50.164;9.086;2022-10-17T08:27:05;11.40;79.70
51466;DHT22;37542;50.164;9.086;2022-10-17T08:30:50;11.60;79.80
51466;DHT22;37542;50.164;9.086;2022-10-17T08:34:31;11.70;79.90
51466;DHT22;37542;50.164;9.086;2022-10-17T08:38:12;11.80;79.90
51466;DHT22;37542;50.164;9.086;2022-10-17T08:45:47;12.20;80.60
51466;DHT22;37542;50.164;9.086;2022-10-17T08:49:57;12.30;80.10
51466;DHT22;37542;50.164;9.086;2022-10-17T08:53:51;12.50;80.70
51466;DHT22;37542;50.164;9.086;2022-10-17T08:57:36;12.70;80.50
51466;DHT22;37542;50.164;9.086;2022-10-17T09:01:41;12.90;80.20
51466;DHT22;37542;50.164;9.086;2022-10-17T09:10:27;13.20;80.00
51466;DHT22;37542;50.164;9.086;2022-10-17T09:18:41;13.60;79.10
51466;DHT22;37542;50.164;9.086;2022-10-17T09:22:29;13.70;79.20
51466;DHT22;37542;50.164;9.086;2022-10-17T09:26:17;13.80;78.80
51466;DHT22;37542;50.164;9.086;2022-10-17T09:30:27;14.00;78.60
51466;DHT22;37542;50.164;9.086;2022-10-17T09:34:09;14.10;78.40
51466;DHT22;37542;50.164;9.086;2022-10-17T09:37:51;14.20;78.20
51466;DHT22;37542;50.164;9.086;2022-10-17T09:41:40;14.30;78.50
51466;DHT22;37542;50.164;9.086;2022-10-17T09:45:24;14.50;78.80
51466;DHT22;37542;50.164;9.086;2022-10-17T09:49:15;14.60;78.70
51466;DHT22;37542;50.164;9.086;2022-10-17T09:53:05;14.80;78.00
51466;DHT22;37542;50.164;9.086;2022-10-17T09:57:04;14.90;77.70
51466;DHT22;37542;50.164;9.086;2022-10-17T10:00:47;15.00;76.80
51466;DHT22;37542;50.164;9.086;2022-10-17T10:04:29;15.10;77.00
51466;DHT22;37542;50.164;9.086;2022-10-17T10:08:17;15.20;76.80
51466;DHT22;37542;50.164;9.086;2022-10-17T10:12:04;15.30;76.10
51466;DHT22;37542;50.164;9.086;2022-10-17T10:16:30;15.40;76.20
51466;DHT22;37542;50.164;9.086;2022-10-17T10:20:32;15.50;76.10
51466;DHT22;37542;50.164;9.086;2022-10-17T10:24:15;15.60;76.00
51466;DHT22;37542;50.164;9.086;2022-10-17T10:27:56;15.80;76.00
51466;DHT22;37542;50.164;9.086;2022-10-17T10:31:38;15.80;76.50
51466;DHT22;37542;50.164;9.086;2022-10-17T10:35:23;16.00;75.00
51466;DHT22;37542;50.164;9.086;2022-10-17T10:39:37;16.10;74.50
51466;DHT22;37542;50.164;9.086;2022-10-17T10:43:58;16.20;73.70
51466;DHT22;37542;50.164;9.086;2022-10-17T10:47:33;16.40;73.50
51466;DHT22;37542;50.164;9.086;2022-10-17T10:51:17;16.50;73.80
51466;DHT22;37542;50.164;9.086;2022-10-17T10:55:39;16.70;73.40
51466;DHT22;37542;50.164;9.086;2022-10-17T10:59:42;16.80;72.00
51466;DHT22;37542;50.164;9.086;2022-10-17T11:03:48;17.00;71.50
51466;DHT22;37542;50.164;9.086;2022-10-17T11:07:59;17.20;71.40
51466;DHT22;37542;50.164;9.086;2022-10-17T11:23:58;17.70;69.90
51466;DHT22;37542;50.164;9.086;2022-10-17T11:27:58;17.90;69.30
51466;DHT22;37542;50.164;9.086;2022-10-17T11:31:44;18.00;70.60
51466;DHT22;37542;50.164;9.086;2022-10-17T11:35:33;18.20;69.10
51466;DHT22;37542;50.164;9.086;2022-10-17T11:39:20;18.30;69.60
51466;DHT22;37542;50.164;9.086;2022-10-17T11:43:31;18.40;69.60
51466;DHT22;37542;50.164;9.086;2022-10-17T11:51:23;18.60;69.50
51466;DHT22;37542;50.164;9.086;2022-10-17T11:55:32;18.70;68.70
51466;DHT22;37542;50.164;9.086;2022-10-17T12:08:16;19.00;66.70
51466;DHT22;37542;50.164;9.086;2022-10-17T12:12:26;19.20;66.40
51466;DHT22;37542;50.164;9.086;2022-10-17T12:20:35;19.40;65.70
51466;DHT22;37542;50.164;9.086;2022-10-17T12:24:33;19.50;65.40
51466;DHT22;37542;50.164;9.086;2022-10-17T12:28:29;19.70;65.30
51466;DHT22;37542;50.164;9.086;2022-10-17T12:32:17;19.80;64.50
51466;DHT22;37542;50.164;9.086;2022-10-17T12:39:57;20.00;64.30
51466;DHT22;37542;50.164;9.086;2022-10-17T12:43:53;20.10;65.90
51466;DHT22;37542;50.164;9.086;2022-10-17T12:47:37;20.20;64.00
51466;DHT22;37542;50.164;9.086;2022-10-17T12:51:19;20.30;64.10
51466;DHT22;37542;50.164;9.086;2022-10-17T12:58:47;20.50;64.80
51466;DHT22;37542;50.164;9.086;2022-10-17T13:02:31;20.60;63.00
51466;DHT22;37542;50.164;9.086;2022-10-17T13:06:24;20.70;63.40
51466;DHT22;37542;50.164;9.086;2022-10-17T13:10:19;20.80;60.60
51466;DHT22;37542;50.164;9.086;2022-10-17T13:14:11;20.80;59.90
51466;DHT22;37542;50.164;9.086;2022-10-17T13:17:58;20.90;59.50
51466;DHT22;37542;50.164;9.086;2022-10-17T13:21:54;20.90;60.00
51466;DHT22;37542;50.164;9.086;2022-10-17T13:25:40;21.00;58.30
51466;DHT22;37542;50.164;9.086;2022-10-17T13:29:21;21.00;60.90
51466;DHT22;37542;50.164;9.086;2022-10-17T13:33:26;21.00;60.90
51466;DHT22;37542;50.164;9.086;2022-10-17T13:37:14;21.00;58.20
51466;DHT22;37542;50.164;9.086;2022-10-17T13:40:55;21.00;59.80
51466;DHT22;37542;50.164;9.086;2022-10-17T13:44:36;21.00;60.60
51466;DHT22;37542;50.164;9.086;2022-10-17T13:48:22;21.10;60.40
51466;DHT22;37542;50.164;9.086;2022-10-17T13:52:15;21.10;59.40
51466;DHT22;37542;50.164;9.086;2022-10-17T13:56:05;21.10;58.30
51466;DHT22;37542;50.164;9.086;2022-10-17T14:00:14;21.20;59.10
51466;DHT22;37542;50.164;9.086;2022-10-17T14:03:59;21.20;58.70
51466;DHT22;37542;50.164;9.086;2022-10-17T14:11:41;21.20;57.90
51466;DHT22;37542;50.164;9.086;2022-10-17T14:15:27;21.20;58.90
51466;DHT22;37542;50.164;9.086;2022-10-17T14:19:27;21.20;58.90
51466;DHT22;37542;50.164;9.086;2022-10-17T14:27:35;21.20;58.40
51466;DHT22;37542;50.164;9.086;2022-10-17T14:31:35;21.20;57.70
51466;DHT22;37542;50.164;9.086;2022-10-17T14:35:16;21.20;58.60
51466;DHT22;37542;50.164;9.086;2022-10-17T14:38:58;21.20;59.10
51466;DHT22;37542;50.164;9.086;2022-10-17T14:42:39;21.20;59.10
51466;DHT22;37542;50.164;9.086;2022-10-17T14:46:20;21.20;58.90
51466;DHT22;37542;50.164;9.086;2022-10-17T14:50:25;21.10;58.80
51466;DHT22;37542;50.164;9.086;2022-10-17T14:54:27;21.10;58.00
51466;DHT22;37542;50.164;9.086;2022-10-17T14:58:17;21.10;58.20
51466;DHT22;37542;50.164;9.086;2022-10-17T15:02:08;21.00;58.00
51466;DHT22;37542;50.164;9.086;2022-10-17T15:05:50;21.00;58.80
51466;DHT22;37542;50.164;9.086;2022-10-17T15:09:32;20.90;58.80
51466;DHT22;37542;50.164;9.086;2022-10-17T15:13:14;20.90;59.00
51466;DHT22;37542;50.164;9.086;2022-10-17T15:16:54;20.80;58.60
51466;DHT22;37542;50.164;9.086;2022-10-17T15:20:36;20.80;59.30
51466;DHT22;37542;50.164;9.086;2022-10-17T15:24:17;20.70;59.20
51466;DHT22;37542;50.164;9.086;2022-10-17T15:27:58;20.70;59.20
51466;DHT22;37542;50.164;9.086;2022-10-17T15:31:39;20.60;59.70
51466;DHT22;37542;50.164;9.086;2022-10-17T15:35:21;20.50;59.30
51466;DHT22;37542;50.164;9.086;2022-10-17T15:39:02;20.40;59.30
51466;DHT22;37542;50.164;9.086;2022-10-17T15:42:43;20.30;59.70
51466;DHT22;37542;50.164;9.086;2022-10-17T15:46:26;20.20;59.60
51466;DHT22;37542;50.164;9.086;2022-10-17T15:50:13;20.10;59.60
51466;DHT22;37542;50.164;9.086;2022-10-17T15:53:54;20.10;59.80
51466;DHT22;37542;50.164;9.086;2022-10-17T15:57:39;20.00;60.30
51466;DHT22;37542;50.164;9.086;2022-10-17T16:01:27;19.80;60.20
51466;DHT22;37542;50.164;9.086;2022-10-17T16:05:22;19.80;60.00
51466;DHT22;37542;50.164;9.086;2022-10-17T16:09:09;19.70;60.40
51466;DHT22;37542;50.164;9.086;2022-10-17T16:12:50;19.60;60.90
51466;DHT22;37542;50.164;9.086;2022-10-17T16:16:31;19.50;61.20
51466;DHT22;37542;50.164;9.086;2022-10-17T16:20:13;19.40;61.70
51466;DHT22;37542;50.164;9.086;2022-10-17T16:23:54;19.30;61.40
51466;DHT22;37542;50.164;9.086;2022-10-17T16:27:36;19.20;61.80
51466;DHT22;37542;50.164;9.086;2022-10-17T16:35:11;19.10;62.20
51466;DHT22;37542;50.164;9.086;2022-10-17T16:38:57;19.00;62.20
51466;DHT22;37542;50.164;9.086;2022-10-17T16:42:38;18.90;62.30
51466;DHT22;37542;50.164;9.086;2022-10-17T16:46:20;18.80;62.20
51466;DHT22;37542;50.164;9.086;2022-10-17T16:50:02;18.70;63.00
51466;DHT22;37542;50.164;9.086;2022-10-17T16:53:44;18.70;62.50
51466;DHT22;37542;50.164;9.086;2022-10-17T16:57:26;18.60;62.50
51466;DHT22;37542;50.164;9.086;2022-10-17T17:01:10;18.50;62.60
51466;DHT22;37542;50.164;9.086;2022-10-17T17:04:54;18.40;62.50
51466;DHT22;37542;50.164;9.086;2022-10-17T17:08:35;18.30;62.60
51466;DHT22;37542;50.164;9.086;2022-10-17T17:12:19;18.30;62.80
51466;DHT22;37542;50.164;9.086;2022-10-17T17:16:08;18.20;62.90
51466;DHT22;37542;50.164;9.086;2022-10-17T17:19:50;18.10;63.10
51466;DHT22;37542;50.164;9.086;2022-10-17T17:23:33;18.00;63.10
51466;DHT22;37542;50.164;9.086;2022-10-17T17:27:16;17.90;63.10
51466;DHT22;37542;50.164;9.086;2022-10-17T17:30:57;17.80;63.20
51466;DHT22;37542;50.164;9.086;2022-10-17T17:34:37;17.70;63.90
51466;DHT22;37542;50.164;9.086;2022-10-17T17:38:18;17.60;63.30
51466;DHT22;37542;50.164;9.086;2022-10-17T17:41:59;17.60;63.60
51466;DHT22;37542;50.164;9.086;2022-10-17T17:45:40;17.50;63.80
51466;DHT22;37542;50.164;9.086;2022-10-17T17:49:21;17.40;63.80
51466;DHT22;37542;50.164;9.086;2022-10-17T17:53:02;17.30;64.00
51466;DHT22;37542;50.164;9.086;2022-10-17T17:56:43;17.20;64.10
51466;DHT22;37542;50.164;9.086;2022-10-17T18:00:24;17.20;64.30
51466;DHT22;37542;50.164;9.086;2022-10-17T18:04:07;17.00;64.30
51466;DHT22;37542;50.164;9.086;2022-10-17T18:07:48;16.90;64.50
51466;DHT22;37542;50.164;9.086;2022-10-17T18:11:29;16.90;64.50
51466;DHT22;37542;50.164;9.086;2022-10-17T18:15:11;16.80;64.80
51466;DHT22;37542;50.164;9.086;2022-10-17T18:18:52;16.70;64.80
51466;DHT22;37542;50.164;9.086;2022-10-17T18:22:33;16.60;64.90
51466;DHT22;37542;50.164;9.086;2022-10-17T18:26:15;16.50;64.90
51466;DHT22;37542;50.164;9.086;2022-10-17T18:29:56;16.40;65.00
51466;DHT22;37542;50.164;9.086;2022-10-17T18:33:37;16.40;65.10
51466;DHT22;37542;50.164;9.086;2022-10-17T18:37:18;16.30;65.30
51466;DHT22;37542;50.164;9.086;2022-10-17T18:44:48;16.10;66.00
51466;DHT22;37542;50.164;9.086;2022-10-17T18:48:29;16.10;65.70
51466;DHT22;37542;50.164;9.086;2022-10-17T18:52:10;16.00;65.80
51466;DHT22;37542;50.164;9.086;2022-10-17T18:55:51;15.90;65.80
51466;DHT22;37542;50.164;9.086;2022-10-17T18:59:32;15.90;66.00
51466;DHT22;37542;50.164;9.086;2022-10-17T19:03:13;15.80;66.10
51466;DHT22;37542;50.164;9.086;2022-10-17T19:06:55;15.70;66.20
51466;DHT22;37542;50.164;9.086;2022-10-17T19:10:35;15.70;66.30
51466;DHT22;37542;50.164;9.086;2022-10-17T19:14:16;15.60;66.50
51466;DHT22;37542;50.164;9.086;2022-10-17T19:17:57;15.60;66.60
51466;DHT22;37542;50.164;9.086;2022-10-17T19:21:38;15.50;66.70
51466;DHT22;37542;50.164;9.086;2022-10-17T19:25:19;15.50;66.80
51466;DHT22;37542;50.164;9.086;2022-10-17T19:29:00;15.50;67.00
51466;DHT22;37542;50.164;9.086;2022-10-17T19:32:43;15.40;67.10
51466;DHT22;37542;50.164;9.086;2022-10-17T19:36:25;15.40;67.20
51466;DHT22;37542;50.164;9.086;2022-10-17T19:40:08;15.30;67.40
51466;DHT22;37542;50.164;9.086;2022-10-17T19:43:50;15.30;67.40
51466;DHT22;37542;50.164;9.086;2022-10-17T19:47:30;15.30;67.40
51466;DHT22;37542;50.164;9.086;2022-10-17T19:51:13;15.20;67.50
51466;DHT22;37542;50.164;9.086;2022-10-17T19:54:54;15.20;67.60
51466;DHT22;37542;50.164;9.086;2022-10-17T19:58:35;15.20;67.60
51466;DHT22;37542;50.164;9.086;2022-10-17T20:02:23;15.20;67.60
51466;DHT22;37542;50.164;9.086;2022-10-17T20:06:05;15.10;67.50
51466;DHT22;37542;50.164;9.086;2022-10-17T20:09:46;15.10;67.50
51466;DHT22;37542;50.164;9.086;2022-10-17T20:13:26;15.00;67.40
51466;DHT22;37542;50.164;9.086;2022-10-17T20:17:07;15.00;67.50
51466;DHT22;37542;50.164;9.086;2022-10-17T20:20:48;14.90;67.50
51466;DHT22;37542;50.164;9.086;2022-10-17T20:24:29;14.90;67.60
51466;DHT22;37542;50.164;9.086;2022-10-17T20:28:10;14.80;67.70
51466;DHT22;37542;50.164;9.086;2022-10-17T20:31:51;14.80;67.90
51466;DHT22;37542;50.164;9.086;2022-10-17T20:35:32;14.70;68.00
51466;DHT22;37542;50.164;9.086;2022-10-17T20:39:14;14.70;68.00
51466;DHT22;37542;50.164;9.086;2022-10-17T20:42:56;14.70;68.30
51466;DHT22;37542;50.164;9.086;2022-10-17T20:46:38;14.60;68.30
51466;DHT22;37542;50.164;9.086;2022-10-17T20:50:19;14.60;68.40
51466;DHT22;37542;50.164;9.086;2022-10-17T20:54:00;14.60;68.70
51466;DHT22;37542;50.164;9.086;2022-10-17T20:57:42;14.50;68.60
51466;DHT22;37542;50.164;9.086;2022-10-17T21:01:23;14.50;68.80
51466;DHT22;37542;50.164;9.086;2022-10-17T21:05:05;14.50;69.00
51466;DHT22;37542;50.164;9.086;2022-10-17T21:08:47;14.40;69.00
51466;DHT22;37542;50.164;9.086;2022-10-17T21:12:29;14.40;69.30
51466;DHT22;37542;50.164;9.086;2022-10-17T21:16:15;14.40;69.30
51466;DHT22;37542;50.164;9.086;2022-10-17T21:19:56;14.40;69.50
51466;DHT22;37542;50.164;9.086;2022-10-17T21:23:38;14.40;69.30
51466;DHT22;37542;50.164;9.086;2022-10-17T21:27:20;14.40;69.40
51466;DHT22;37542;50.164;9.086;2022-10-17T21:31:19;14.40;69.50
51466;DHT22;37542;50.164;9.086;2022-10-17T21:35:02;14.40;70.40
51466;DHT22;37542;50.164;9.086;2022-10-17T21:38:44;14.40;69.70
51466;DHT22;37542;50.164;9.086;2022-10-17T21:42:26;14.40;69.80
51466;DHT22;37542;50.164;9.086;2022-10-17T21:46:10;14.40;69.80
51466;DHT22;37542;50.164;9.086;2022-10-17T21:49:55;14.40;70.20
51466;DHT22;37542;50.164;9.086;2022-10-17T21:53:36;14.40;70.00
51466;DHT22;37542;50.164;9.086;2022-10-17T21:57:17;14.40;70.00
51466;DHT22;37542;50.164;9.086;2022-10-17T22:04:55;14.40;70.80
51466;DHT22;37542;50.164;9.086;2022-10-17T22:08:36;14.40;70.00
51466;DHT22;37542;50.164;9.086;2022-10-17T22:12:17;14.40;70.10
51466;DHT22;37542;50.164;9.086;2022-10-17T22:16:05;14.40;70.10
51466;DHT22;37542;50.164;9.086;2022-10-17T22:19:47;14.40;70.10
51466;DHT22;37542;50.164;9.086;2022-10-17T22:23:27;14.40;70.20
51466;DHT22;37542;50.164;9.086;2022-10-17T22:27:08;14.30;70.10
51466;DHT22;37542;50.164;9.086;2022-10-17T22:30:50;14.40;70.20
51466;DHT22;37542;50.164;9.086;2022-10-17T22:34:31;14.40;70.90
51466;DHT22;37542;50.164;9.086;2022-10-17T22:38:12;14.40;70.20
51466;DHT22;37542;50.164;9.086;2022-10-17T22:41:53;14.30;70.20
51466;DHT22;37542;50.164;9.086;2022-10-17T22:45:34;14.30;70.10
51466;DHT22;37542;50.164;9.086;2022-10-17T22:49:15;14.30;70.20
51466;DHT22;37542;50.164;9.086;2022-10-17T22:52:55;14.30;70.20
51466;DHT22;37542;50.164;9.086;2022-10-17T22:56:36;14.30;70.30
51466;DHT22;37542;50.164;9.086;2022-10-17T23:00:17;14.20;70.40
51466;DHT22;37542;50.164;9.086;2022-10-17T23:03:58;14.20;70.40
51466;DHT22;37542;50.164;9.086;2022-10-17T23:07:39;14.20;70.50
51466;DHT22;37542;50.164;9.086;2022-10-17T23:11:19;14.20;70.40
51466;DHT22;37542;50.164;9.086;2022-10-17T23:15:00;14.20;70.50
51466;DHT22;37542;50.164;9.086;2022-10-17T23:18:41;14.20;70.50
51466;DHT22;37542;50.164;9.086;2022-10-17T23:22:23;14.20;70.50
51466;DHT22;37542;50.164;9.086;2022-10-17T23:26:06;14.10;70.50
51466;DHT22;37542;50.164;9.086;2022-10-17T23:29:49;14.10;70.60
51466;DHT22;37542;50.164;9.086;2022-10-17T23:33:30;14.10;70.50
51466;DHT22;37542;50.164;9.086;2022-10-17T23:37:10;14.10;70.50
51466;DHT22;37542;50.164;9.086;2022-10-17T23:40:51;14.00;70.60
51466;DHT22;37542;50.164;9.086;2022-10-17T23:44:32;14.00;70.60
51466;DHT22;37542;50.164;9.086;2022-10-17T23:48:12;14.00;70.60
51466;DHT22;37542;50.164;9.086;2022-10-17T23:51:53;13.90;70.60
51466;DHT22;37542;50.164;9.086;2022-10-17T23:55:34;13.90;70.80
51466;DHT22;37542;50.164;9.086;2022-10-17T23:59:15;13.90;70.80
